TAM5504 SABE-SBSP
Flight info
| Callsign | TAM5504 |
|---|---|
| Flight time | 2h 7m |
| Altitude | 37000 |
| Route | DORVO8 DORVO UN857 ITBEB UM540 ANISE |
| Aircraft | A320/M-SDE3FGHIRWY/LB1 |
Departure
| Time | 2026-05-05 19:28 |
|---|---|
| Airport | Aeroparque Jorge Newbery (SABE) |
Arrival
| Time | 2026-05-05 21:35 |
|---|---|
| Airport | Congonhas–Deputado Freitas Nobre Airport (SBSP) |
| Time | Latitude | Longitude | Altitude | Speed | Heading |
|---|---|---|---|---|---|
| 2026-05-05 19:01 | -34.55677 | -58.41486 | 27 ft | 0 kts | 11° |
| 2026-05-05 19:16 | -34.55687 | -58.41488 | 27 ft | 2 kts | 11° |
| 2026-05-05 19:16 | -34.55697 | -58.41491 | 27 ft | 2 kts | 11° |
| 2026-05-05 19:16 | -34.55712 | -58.41494 | 27 ft | 0 kts | 11° |
| 2026-05-05 19:17 | -34.55724 | -58.41493 | 27 ft | 2 kts | 322° |
| 2026-05-05 19:17 | -34.55730 | -58.41486 | 27 ft | 0 kts | 292° |
| 2026-05-05 19:17 | -34.55732 | -58.41481 | 27 ft | 1 kts | 297° |
| 2026-05-05 19:17 | -34.55732 | -58.41479 | 27 ft | 0 kts | 297° |
| 2026-05-05 19:21 | -34.55731 | -58.41483 | 27 ft | 2 kts | 297° |
| 2026-05-05 19:21 | -34.55720 | -58.41508 | 27 ft | 4 kts | 295° |
| 2026-05-05 19:22 | -34.55718 | -58.41547 | 27 ft | 5 kts | 255° |
| 2026-05-05 19:22 | -34.55735 | -58.41568 | 27 ft | 5 kts | 208° |
| 2026-05-05 19:22 | -34.55788 | -58.41602 | 27 ft | 0 kts | 210° |
| 2026-05-05 19:22 | -34.55789 | -58.41605 | 27 ft | 0 kts | 250° |
| 2026-05-05 19:23 | -34.55783 | -58.41622 | 27 ft | 3 kts | 291° |
| 2026-05-05 19:23 | -34.55769 | -58.41661 | 27 ft | 6 kts | 296° |
| 2026-05-05 19:23 | -34.55747 | -58.41711 | 27 ft | 7 kts | 297° |
| 2026-05-05 19:23 | -34.55720 | -58.41770 | 27 ft | 8 kts | 303° |
| 2026-05-05 19:24 | -34.55685 | -58.41835 | 27 ft | 9 kts | 303° |
| 2026-05-05 19:24 | -34.55659 | -58.41882 | 27 ft | 10 kts | 303° |
| 2026-05-05 19:24 | -34.55616 | -58.41958 | 27 ft | 11 kts | 304° |
| 2026-05-05 19:24 | -34.55553 | -58.42067 | 27 ft | 12 kts | 306° |
| 2026-05-05 19:25 | -34.55501 | -58.42153 | 27 ft | 13 kts | 306° |
| 2026-05-05 19:25 | -34.55444 | -58.42243 | 27 ft | 13 kts | 307° |
| 2026-05-05 19:25 | -34.55405 | -58.42303 | 27 ft | 13 kts | 308° |
| 2026-05-05 19:25 | -34.55358 | -58.42430 | 27 ft | 9 kts | 275° |
| 2026-05-05 19:26 | -34.55356 | -58.42480 | 27 ft | 3 kts | 261° |
| 2026-05-05 19:26 | -34.55381 | -58.42508 | 27 ft | 4 kts | 214° |
| 2026-05-05 19:26 | -34.55405 | -58.42499 | 27 ft | 3 kts | 133° |
| 2026-05-05 19:26 | -34.55412 | -58.42488 | 27 ft | 1 kts | 122° |
| 2026-05-05 19:27 | -34.55442 | -58.42432 | 27 ft | 32 kts | 122° |
| 2026-05-05 19:27 | -34.55593 | -58.42161 | 27 ft | 82 kts | 123° |
| 2026-05-05 19:27 | -34.56240 | -58.41003 | 49 ft | 157 kts | 123° |
| 2026-05-05 19:27 | -34.56646 | -58.40280 | 402 ft | 156 kts | 123° |
| 2026-05-05 19:28 | -34.57249 | -58.39187 | 941 ft | 160 kts | 116° |
| 2026-05-05 19:28 | -34.57561 | -58.37421 | 1653 ft | 168 kts | 82° |
| 2026-05-05 19:28 | -34.57091 | -58.36132 | 2134 ft | 174 kts | 43° |
| 2026-05-05 19:28 | -34.56468 | -58.35500 | 2435 ft | 181 kts | 36° |
| 2026-05-05 19:29 | -34.55410 | -58.34560 | 2878 ft | 194 kts | 39° |
| 2026-05-05 19:29 | -34.54696 | -58.33124 | 3279 ft | 214 kts | 80° |
| 2026-05-05 19:29 | -34.55059 | -58.30654 | 3841 ft | 240 kts | 109° |
| 2026-05-05 19:29 | -34.55656 | -58.28670 | 4319 ft | 258 kts | 109° |
| 2026-05-05 19:30 | -34.56248 | -58.26562 | 4787 ft | 276 kts | 106° |
| 2026-05-05 19:30 | -34.56815 | -58.24297 | 5345 ft | 290 kts | 105° |
| 2026-05-05 19:30 | -34.57185 | -58.22709 | 5834 ft | 295 kts | 104° |
| 2026-05-05 19:30 | -34.57721 | -58.20285 | 6605 ft | 301 kts | 103° |
| 2026-05-05 19:31 | -34.58418 | -58.16995 | 7671 ft | 307 kts | 103° |
| 2026-05-05 19:31 | -34.58934 | -58.14516 | 8493 ft | 310 kts | 103° |
| 2026-05-05 19:31 | -34.59281 | -58.12833 | 9039 ft | 312 kts | 103° |
| 2026-05-05 19:31 | -34.59987 | -58.09396 | 10078 ft | 317 kts | 103° |
| 2026-05-05 19:32 | -34.60341 | -58.07662 | 10510 ft | 322 kts | 104° |
| 2026-05-05 19:32 | -34.60895 | -58.04952 | 10902 ft | 339 kts | 104° |
| 2026-05-05 19:32 | -34.61675 | -58.01141 | 11323 ft | 363 kts | 104° |
| 2026-05-05 19:32 | -34.62299 | -57.98086 | 11724 ft | 377 kts | 104° |
| 2026-05-05 19:33 | -34.62933 | -57.94978 | 12391 ft | 381 kts | 104° |
| 2026-05-05 19:33 | -34.63350 | -57.92929 | 12857 ft | 383 kts | 104° |
| 2026-05-05 19:33 | -34.64202 | -57.88730 | 13758 ft | 387 kts | 104° |
| 2026-05-05 19:33 | -34.64845 | -57.85567 | 14388 ft | 392 kts | 104° |
| 2026-05-05 19:34 | -34.65283 | -57.83403 | 14782 ft | 396 kts | 104° |
| 2026-05-05 19:34 | -34.65940 | -57.80159 | 15339 ft | 402 kts | 104° |
| 2026-05-05 19:34 | -34.66835 | -57.75719 | 16122 ft | 409 kts | 104° |
| 2026-05-05 19:35 | -34.67965 | -57.70098 | 17072 ft | 418 kts | 104° |
| 2026-05-05 19:35 | -34.68657 | -57.66645 | 17637 ft | 423 kts | 104° |
| 2026-05-05 19:35 | -34.69587 | -57.61995 | 18378 ft | 430 kts | 104° |
| 2026-05-05 19:35 | -34.70055 | -57.59653 | 18750 ft | 433 kts | 104° |
| 2026-05-05 19:36 | -34.70916 | -57.54864 | 19488 ft | 438 kts | 95° |
| 2026-05-05 19:36 | -34.70893 | -57.52438 | 19798 ft | 439 kts | 79° |
| 2026-05-05 19:36 | -34.69905 | -57.48946 | 20359 ft | 432 kts | 56° |
| 2026-05-05 19:36 | -34.68108 | -57.46135 | 20922 ft | 428 kts | 44° |
| 2026-05-05 19:37 | -34.65447 | -57.42522 | 21529 ft | 435 kts | 44° |
| 2026-05-05 19:37 | -34.64085 | -57.40655 | 21856 ft | 439 kts | 44° |
| 2026-05-05 19:37 | -34.62076 | -57.37853 | 22347 ft | 443 kts | 45° |
| 2026-05-05 19:37 | -34.60080 | -57.35019 | 22911 ft | 444 kts | 45° |
| 2026-05-05 19:38 | -34.58103 | -57.32175 | 23482 ft | 445 kts | 45° |
| 2026-05-05 19:38 | -34.56098 | -57.29270 | 23961 ft | 448 kts | 45° |
| 2026-05-05 19:38 | -34.53429 | -57.25403 | 24529 ft | 453 kts | 45° |
| 2026-05-05 19:38 | -34.52081 | -57.23451 | 24828 ft | 455 kts | 45° |
| 2026-05-05 19:39 | -34.50051 | -57.20519 | 25251 ft | 458 kts | 45° |
| 2026-05-05 19:39 | -34.47988 | -57.17543 | 25663 ft | 461 kts | 45° |
| 2026-05-05 19:39 | -34.45230 | -57.13568 | 26209 ft | 464 kts | 45° |
| 2026-05-05 19:39 | -34.43152 | -57.10577 | 26617 ft | 467 kts | 45° |
| 2026-05-05 19:40 | -34.41779 | -57.08601 | 26870 ft | 468 kts | 45° |
| 2026-05-05 19:40 | -34.39669 | -57.05569 | 27225 ft | 471 kts | 45° |
| 2026-05-05 19:40 | -34.37563 | -57.02546 | 27575 ft | 474 kts | 45° |
| 2026-05-05 19:40 | -34.35412 | -56.99462 | 27908 ft | 477 kts | 45° |
| 2026-05-05 19:41 | -34.32571 | -56.95391 | 28428 ft | 479 kts | 45° |
| 2026-05-05 19:41 | -34.31130 | -56.93325 | 28765 ft | 478 kts | 45° |
| 2026-05-05 19:41 | -34.28295 | -56.89268 | 29396 ft | 477 kts | 45° |
| 2026-05-05 19:41 | -34.26868 | -56.87228 | 29692 ft | 476 kts | 44° |
| 2026-05-05 19:42 | -34.24038 | -56.83183 | 30247 ft | 476 kts | 44° |
| 2026-05-05 19:42 | -34.21876 | -56.80096 | 30644 ft | 476 kts | 44° |
| 2026-05-05 19:42 | -34.19751 | -56.77068 | 31041 ft | 476 kts | 44° |
| 2026-05-05 19:42 | -34.17604 | -56.74012 | 31469 ft | 474 kts | 44° |
| 2026-05-05 19:43 | -34.15481 | -56.70995 | 31859 ft | 474 kts | 44° |
| 2026-05-05 19:43 | -34.13354 | -56.67976 | 32272 ft | 472 kts | 44° |
| 2026-05-05 19:43 | -34.11239 | -56.64973 | 32641 ft | 472 kts | 43° |
| 2026-05-05 19:43 | -34.09100 | -56.61938 | 32985 ft | 471 kts | 43° |
| 2026-05-05 19:44 | -34.07694 | -56.59950 | 33193 ft | 472 kts | 43° |
| 2026-05-05 19:44 | -34.05564 | -56.56937 | 33533 ft | 471 kts | 43° |
| 2026-05-05 19:44 | -34.02752 | -56.52961 | 34112 ft | 468 kts | 43° |
| 2026-05-05 19:44 | -34.01335 | -56.50958 | 34348 ft | 468 kts | 43° |
| 2026-05-05 19:45 | -33.99257 | -56.48026 | 34724 ft | 466 kts | 43° |
| 2026-05-05 19:45 | -33.96433 | -56.44048 | 35218 ft | 464 kts | 43° |
| 2026-05-05 19:45 | -33.95045 | -56.42092 | 35428 ft | 464 kts | 43° |
| 2026-05-05 19:45 | -33.92955 | -56.39154 | 35666 ft | 465 kts | 43° |
| 2026-05-05 19:46 | -33.90836 | -56.36179 | 35856 ft | 467 kts | 43° |
| 2026-05-05 19:46 | -33.88023 | -56.32224 | 36102 ft | 469 kts | 42° |
| 2026-05-05 19:46 | -33.86601 | -56.30237 | 36287 ft | 468 kts | 42° |
| 2026-05-05 19:46 | -33.83774 | -56.26294 | 36577 ft | 468 kts | 42° |
| 2026-05-05 19:47 | -33.82358 | -56.24318 | 36687 ft | 469 kts | 41° |
| 2026-05-05 19:47 | -33.80229 | -56.21361 | 36866 ft | 469 kts | 42° |
| 2026-05-05 19:47 | -33.78102 | -56.18400 | 36969 ft | 472 kts | 42° |
| 2026-05-05 19:48 | -33.73830 | -56.12410 | 36973 ft | 470 kts | 43° |
| 2026-05-05 19:48 | -33.69582 | -56.06464 | 36974 ft | 470 kts | 43° |
| 2026-05-05 19:49 | -33.65336 | -56.00539 | 36971 ft | 469 kts | 43° |
| 2026-05-05 19:49 | -33.61087 | -55.94622 | 36962 ft | 468 kts | 43° |
| 2026-05-05 19:50 | -33.56851 | -55.88726 | 36972 ft | 468 kts | 43° |
| 2026-05-05 19:50 | -33.51875 | -55.81824 | 36959 ft | 471 kts | 43° |
| 2026-05-05 19:51 | -33.48331 | -55.76911 | 36961 ft | 471 kts | 43° |
| 2026-05-05 19:51 | -33.43351 | -55.70021 | 36960 ft | 471 kts | 43° |
| 2026-05-05 19:52 | -33.39083 | -55.64129 | 36964 ft | 471 kts | 43° |
| 2026-05-05 19:52 | -33.35500 | -55.59190 | 36965 ft | 472 kts | 43° |
| 2026-05-05 19:53 | -33.31160 | -55.53215 | 36968 ft | 471 kts | 43° |
| 2026-05-05 19:53 | -33.26821 | -55.47251 | 36968 ft | 471 kts | 43° |
| 2026-05-05 19:54 | -33.22491 | -55.41307 | 36964 ft | 472 kts | 44° |
| 2026-05-05 19:54 | -33.18154 | -55.35369 | 36964 ft | 472 kts | 44° |
| 2026-05-05 19:55 | -33.13839 | -55.29434 | 36965 ft | 472 kts | 43° |
| 2026-05-05 19:55 | -33.09505 | -55.23491 | 36967 ft | 472 kts | 44° |
| 2026-05-05 19:56 | -33.05145 | -55.17542 | 36968 ft | 473 kts | 44° |
| 2026-05-05 19:56 | -33.00073 | -55.10636 | 36984 ft | 475 kts | 44° |
| 2026-05-05 19:57 | -32.95724 | -55.04728 | 36980 ft | 474 kts | 44° |
| 2026-05-05 19:57 | -32.92081 | -54.99786 | 36992 ft | 475 kts | 44° |
| 2026-05-05 19:58 | -32.87670 | -54.93822 | 36986 ft | 477 kts | 44° |
| 2026-05-05 19:58 | -32.83247 | -54.87877 | 36981 ft | 478 kts | 44° |
| 2026-05-05 19:59 | -32.78848 | -54.81951 | 36975 ft | 479 kts | 44° |
| 2026-05-05 19:59 | -32.74404 | -54.75962 | 36977 ft | 480 kts | 44° |
| 2026-05-05 20:00 | -32.69971 | -54.69997 | 36979 ft | 481 kts | 44° |
| 2026-05-05 20:00 | -32.64788 | -54.63035 | 36982 ft | 481 kts | 44° |
| 2026-05-05 20:01 | -32.61072 | -54.58050 | 36972 ft | 481 kts | 44° |
| 2026-05-05 20:01 | -32.56596 | -54.52055 | 36978 ft | 482 kts | 44° |
| 2026-05-05 20:02 | -32.52125 | -54.46077 | 36981 ft | 484 kts | 44° |
| 2026-05-05 20:02 | -32.46898 | -54.39099 | 36980 ft | 484 kts | 44° |
| 2026-05-05 20:03 | -32.42385 | -54.33078 | 36978 ft | 484 kts | 43° |
| 2026-05-05 20:03 | -32.37882 | -54.27063 | 36988 ft | 486 kts | 43° |
| 2026-05-05 20:04 | -32.33355 | -54.21034 | 36992 ft | 486 kts | 44° |
| 2026-05-05 20:04 | -32.28882 | -54.14963 | 36995 ft | 486 kts | 44° |
| 2026-05-05 20:05 | -32.24396 | -54.08869 | 36988 ft | 488 kts | 44° |
| 2026-05-05 20:05 | -32.20672 | -54.03825 | 36989 ft | 488 kts | 44° |
| 2026-05-05 20:06 | -32.15380 | -53.96685 | 36981 ft | 490 kts | 44° |
| 2026-05-05 20:06 | -32.11616 | -53.91611 | 36983 ft | 490 kts | 44° |
| 2026-05-05 20:07 | -32.07084 | -53.85516 | 36983 ft | 489 kts | 44° |
| 2026-05-05 20:07 | -32.02554 | -53.79422 | 36983 ft | 489 kts | 44° |
| 2026-05-05 20:08 | -31.98043 | -53.73371 | 36977 ft | 489 kts | 44° |
| 2026-05-05 20:08 | -31.92729 | -53.66264 | 36987 ft | 489 kts | 44° |
| 2026-05-05 20:09 | -31.88950 | -53.61217 | 36993 ft | 488 kts | 44° |
| 2026-05-05 20:09 | -31.83664 | -53.54215 | 36994 ft | 489 kts | 45° |
| 2026-05-05 20:10 | -31.79104 | -53.48164 | 37005 ft | 488 kts | 45° |
| 2026-05-05 20:10 | -31.75350 | -53.43177 | 37006 ft | 488 kts | 45° |
| 2026-05-05 20:11 | -31.70038 | -53.36124 | 37007 ft | 489 kts | 45° |
| 2026-05-05 20:11 | -31.65502 | -53.30095 | 37008 ft | 487 kts | 44° |
| 2026-05-05 20:12 | -31.61701 | -53.25046 | 37006 ft | 488 kts | 44° |
| 2026-05-05 20:12 | -31.56388 | -53.18017 | 37006 ft | 488 kts | 44° |
| 2026-05-05 20:13 | -31.52641 | -53.13077 | 37004 ft | 487 kts | 44° |
| 2026-05-05 20:13 | -31.47334 | -53.06092 | 37003 ft | 486 kts | 44° |
| 2026-05-05 20:14 | -31.43577 | -53.01158 | 37007 ft | 486 kts | 45° |
| 2026-05-05 20:14 | -31.39037 | -52.95198 | 37007 ft | 486 kts | 45° |
| 2026-05-05 20:15 | -31.34489 | -52.89242 | 37008 ft | 486 kts | 44° |
| 2026-05-05 20:15 | -31.29949 | -52.83303 | 37012 ft | 487 kts | 45° |
| 2026-05-05 20:16 | -31.24623 | -52.76337 | 37017 ft | 488 kts | 45° |
| 2026-05-05 20:16 | -31.20069 | -52.70390 | 37022 ft | 488 kts | 45° |
| 2026-05-05 20:17 | -31.16250 | -52.65411 | 37021 ft | 488 kts | 45° |
| 2026-05-05 20:17 | -31.11668 | -52.59455 | 37024 ft | 488 kts | 45° |
| 2026-05-05 20:18 | -31.07096 | -52.53522 | 37023 ft | 488 kts | 45° |
| 2026-05-05 20:18 | -31.02510 | -52.47577 | 37018 ft | 489 kts | 45° |
| 2026-05-05 20:19 | -30.97945 | -52.41671 | 37014 ft | 489 kts | 45° |
| 2026-05-05 20:19 | -30.92576 | -52.34737 | 37016 ft | 489 kts | 44° |
| 2026-05-05 20:20 | -30.87970 | -52.28805 | 37014 ft | 489 kts | 44° |
| 2026-05-05 20:20 | -30.84083 | -52.23960 | 37009 ft | 488 kts | 44° |
| 2026-05-05 20:21 | -30.79396 | -52.18143 | 37019 ft | 489 kts | 44° |
| 2026-05-05 20:21 | -30.74728 | -52.12333 | 37022 ft | 489 kts | 44° |
| 2026-05-05 20:22 | -30.70037 | -52.06494 | 37031 ft | 489 kts | 44° |
| 2026-05-05 20:22 | -30.65368 | -52.00685 | 37039 ft | 488 kts | 44° |
| 2026-05-05 20:23 | -30.60654 | -51.94834 | 37045 ft | 489 kts | 44° |
| 2026-05-05 20:23 | -30.55179 | -51.88047 | 37045 ft | 489 kts | 44° |
| 2026-05-05 20:24 | -30.51300 | -51.83246 | 37043 ft | 489 kts | 44° |
| 2026-05-05 20:24 | -30.46592 | -51.77429 | 37039 ft | 490 kts | 44° |
| 2026-05-05 20:25 | -30.41972 | -51.71610 | 37029 ft | 491 kts | 46° |
| 2026-05-05 20:25 | -30.36645 | -51.64606 | 37016 ft | 491 kts | 46° |
| 2026-05-05 20:26 | -30.32876 | -51.59668 | 37013 ft | 491 kts | 46° |
| 2026-05-05 20:26 | -30.28294 | -51.53698 | 37010 ft | 491 kts | 46° |
| 2026-05-05 20:27 | -30.23704 | -51.47735 | 37007 ft | 491 kts | 46° |
| 2026-05-05 20:27 | -30.19136 | -51.41809 | 37015 ft | 490 kts | 46° |
| 2026-05-05 20:28 | -30.14559 | -51.35880 | 37007 ft | 490 kts | 46° |
| 2026-05-05 20:28 | -30.09241 | -51.28974 | 37010 ft | 490 kts | 46° |
| 2026-05-05 20:29 | -30.05456 | -51.24075 | 37018 ft | 490 kts | 46° |
| 2026-05-05 20:29 | -30.00884 | -51.18183 | 37013 ft | 490 kts | 46° |
| 2026-05-05 20:30 | -29.95528 | -51.11290 | 37025 ft | 490 kts | 46° |
| 2026-05-05 20:30 | -29.90935 | -51.05399 | 37028 ft | 491 kts | 46° |
| 2026-05-05 20:31 | -29.86330 | -50.99530 | 37034 ft | 491 kts | 45° |
| 2026-05-05 20:31 | -29.82488 | -50.94649 | 37044 ft | 491 kts | 46° |
| 2026-05-05 20:32 | -29.77124 | -50.87818 | 37049 ft | 491 kts | 46° |
| 2026-05-05 20:32 | -29.72527 | -50.81961 | 37061 ft | 490 kts | 46° |
| 2026-05-05 20:33 | -29.68688 | -50.77079 | 37065 ft | 490 kts | 46° |
| 2026-05-05 20:33 | -29.63346 | -50.70295 | 37077 ft | 489 kts | 46° |
| 2026-05-05 20:34 | -29.58735 | -50.64448 | 37099 ft | 489 kts | 46° |
| 2026-05-05 20:34 | -29.54919 | -50.59642 | 37121 ft | 488 kts | 44° |
| 2026-05-05 20:35 | -29.49900 | -50.54308 | 37150 ft | 485 kts | 36° |
| 2026-05-05 20:35 | -29.43601 | -50.48866 | 37181 ft | 484 kts | 33° |
| 2026-05-05 20:36 | -29.39061 | -50.45002 | 37187 ft | 484 kts | 33° |
| 2026-05-05 20:36 | -29.32758 | -50.39612 | 37184 ft | 484 kts | 33° |
| 2026-05-05 20:37 | -29.27326 | -50.34962 | 37194 ft | 484 kts | 33° |
| 2026-05-05 20:37 | -29.21886 | -50.30279 | 37202 ft | 483 kts | 33° |
| 2026-05-05 20:38 | -29.16490 | -50.25649 | 37202 ft | 483 kts | 33° |
| 2026-05-05 20:38 | -29.11979 | -50.21795 | 37207 ft | 482 kts | 33° |
| 2026-05-05 20:39 | -29.06581 | -50.17194 | 37205 ft | 482 kts | 33° |
| 2026-05-05 20:39 | -29.01149 | -50.12571 | 37207 ft | 482 kts | 33° |
| 2026-05-05 20:40 | -28.95753 | -50.07986 | 37220 ft | 482 kts | 33° |
| 2026-05-05 20:40 | -28.89439 | -50.02628 | 37226 ft | 482 kts | 33° |
| 2026-05-05 20:41 | -28.83970 | -49.98019 | 37232 ft | 483 kts | 33° |
| 2026-05-05 20:41 | -28.79455 | -49.94207 | 37227 ft | 483 kts | 33° |
| 2026-05-05 20:42 | -28.74020 | -49.89613 | 37207 ft | 483 kts | 33° |
| 2026-05-05 20:42 | -28.67691 | -49.84269 | 37187 ft | 483 kts | 33° |
| 2026-05-05 20:43 | -28.63172 | -49.80457 | 37188 ft | 483 kts | 34° |
| 2026-05-05 20:43 | -28.56836 | -49.75116 | 37196 ft | 483 kts | 34° |
| 2026-05-05 20:44 | -28.52307 | -49.71307 | 37206 ft | 483 kts | 34° |
| 2026-05-05 20:44 | -28.46848 | -49.66717 | 37208 ft | 483 kts | 34° |
| 2026-05-05 20:45 | -28.38701 | -49.59884 | 37202 ft | 483 kts | 34° |
| 2026-05-05 20:45 | -28.33274 | -49.55341 | 37197 ft | 483 kts | 34° |
| 2026-05-05 20:46 | -28.27818 | -49.50778 | 37199 ft | 483 kts | 34° |
| 2026-05-05 20:46 | -28.21469 | -49.45477 | 37206 ft | 483 kts | 34° |
| 2026-05-05 20:47 | -28.16941 | -49.41700 | 37201 ft | 483 kts | 34° |
| 2026-05-05 20:47 | -28.11454 | -49.37131 | 37198 ft | 484 kts | 34° |
| 2026-05-05 20:48 | -28.06010 | -49.32559 | 37190 ft | 484 kts | 34° |
| 2026-05-05 20:48 | -28.00616 | -49.27926 | 37182 ft | 484 kts | 34° |
| 2026-05-05 20:49 | -27.95221 | -49.23331 | 37165 ft | 483 kts | 34° |
| 2026-05-05 20:49 | -27.89815 | -49.18744 | 37169 ft | 484 kts | 34° |
| 2026-05-05 20:50 | -27.84324 | -49.14230 | 37173 ft | 483 kts | 32° |
| 2026-05-05 20:50 | -27.78828 | -49.09859 | 37170 ft | 483 kts | 32° |
| 2026-05-05 20:51 | -27.72372 | -49.04699 | 37165 ft | 483 kts | 33° |
| 2026-05-05 20:51 | -27.66879 | -49.00247 | 37151 ft | 484 kts | 34° |
| 2026-05-05 20:52 | -27.62312 | -48.96480 | 37143 ft | 483 kts | 34° |
| 2026-05-05 20:52 | -27.55981 | -48.91261 | 37116 ft | 483 kts | 34° |
| 2026-05-05 20:53 | -27.51435 | -48.87524 | 37101 ft | 483 kts | 34° |
| 2026-05-05 20:53 | -27.45054 | -48.82285 | 37094 ft | 483 kts | 34° |
| 2026-05-05 20:54 | -27.40487 | -48.78540 | 37088 ft | 483 kts | 34° |
| 2026-05-05 20:54 | -27.34092 | -48.73304 | 37085 ft | 482 kts | 34° |
| 2026-05-05 20:55 | -27.29542 | -48.69585 | 37073 ft | 483 kts | 34° |
| 2026-05-05 20:55 | -27.23210 | -48.64364 | 37069 ft | 484 kts | 35° |
| 2026-05-05 20:56 | -27.18690 | -48.60538 | 37071 ft | 484 kts | 35° |
| 2026-05-05 20:56 | -27.12318 | -48.55339 | 37073 ft | 484 kts | 34° |
| 2026-05-05 20:57 | -27.06856 | -48.50938 | 37071 ft | 483 kts | 34° |
| 2026-05-05 20:57 | -27.02286 | -48.47252 | 37070 ft | 483 kts | 34° |
| 2026-05-05 20:58 | -26.96825 | -48.42849 | 37073 ft | 485 kts | 34° |
| 2026-05-05 20:58 | -26.91275 | -48.38380 | 37068 ft | 495 kts | 34° |
| 2026-05-05 20:59 | -26.85619 | -48.33843 | 37077 ft | 503 kts | 34° |
| 2026-05-05 20:59 | -26.78985 | -48.28497 | 37067 ft | 507 kts | 34° |
| 2026-05-05 21:00 | -26.74206 | -48.24657 | 37075 ft | 508 kts | 34° |
| 2026-05-05 21:00 | -26.68450 | -48.20033 | 37077 ft | 508 kts | 34° |
| 2026-05-05 21:01 | -26.62747 | -48.15437 | 37076 ft | 509 kts | 34° |
| 2026-05-05 21:01 | -26.57020 | -48.10829 | 37079 ft | 509 kts | 34° |
| 2026-05-05 21:02 | -26.50291 | -48.05428 | 37073 ft | 509 kts | 34° |
| 2026-05-05 21:02 | -26.45481 | -48.01572 | 37081 ft | 508 kts | 34° |
| 2026-05-05 21:03 | -26.39737 | -47.96973 | 37085 ft | 509 kts | 34° |
| 2026-05-05 21:03 | -26.33037 | -47.91614 | 37075 ft | 508 kts | 34° |
| 2026-05-05 21:04 | -26.27268 | -47.87004 | 37077 ft | 508 kts | 34° |
| 2026-05-05 21:04 | -26.21541 | -47.82434 | 37080 ft | 508 kts | 34° |
| 2026-05-05 21:05 | -26.15804 | -47.77866 | 37084 ft | 508 kts | 34° |
| 2026-05-05 21:05 | -26.11050 | -47.74082 | 37085 ft | 507 kts | 34° |
| 2026-05-05 21:06 | -26.05300 | -47.69506 | 37082 ft | 508 kts | 34° |
| 2026-05-05 21:06 | -25.98584 | -47.64173 | 37083 ft | 507 kts | 34° |
| 2026-05-05 21:07 | -25.93797 | -47.60376 | 37084 ft | 507 kts | 34° |
| 2026-05-05 21:07 | -25.88065 | -47.55840 | 37072 ft | 507 kts | 34° |
| 2026-05-05 21:08 | -25.82328 | -47.51327 | 37081 ft | 507 kts | 34° |
| 2026-05-05 21:08 | -25.76568 | -47.46787 | 37076 ft | 507 kts | 34° |
| 2026-05-05 21:09 | -25.70791 | -47.42232 | 37075 ft | 507 kts | 34° |
| 2026-05-05 21:09 | -25.65050 | -47.37706 | 37080 ft | 508 kts | 34° |
| 2026-05-05 21:10 | -25.59300 | -47.33173 | 37073 ft | 508 kts | 34° |
| 2026-05-05 21:10 | -25.53528 | -47.28601 | 37074 ft | 507 kts | 34° |
| 2026-05-05 21:11 | -25.47807 | -47.24096 | 37084 ft | 507 kts | 34° |
| 2026-05-05 21:11 | -25.42031 | -47.19564 | 36868 ft | 508 kts | 34° |
| 2026-05-05 21:12 | -25.39166 | -47.17319 | 36584 ft | 505 kts | 34° |
| 2026-05-05 21:12 | -25.36306 | -47.15080 | 36303 ft | 501 kts | 34° |
| 2026-05-05 21:12 | -25.33487 | -47.12873 | 36022 ft | 498 kts | 34° |
| 2026-05-05 21:12 | -25.30673 | -47.10672 | 35733 ft | 496 kts | 34° |
| 2026-05-05 21:13 | -25.27847 | -47.08464 | 35328 ft | 496 kts | 34° |
| 2026-05-05 21:13 | -25.25035 | -47.06269 | 34773 ft | 497 kts | 34° |
| 2026-05-05 21:13 | -25.22210 | -47.04065 | 34140 ft | 497 kts | 34° |
| 2026-05-05 21:13 | -25.18446 | -47.01129 | 33221 ft | 498 kts | 34° |
| 2026-05-05 21:14 | -25.15628 | -46.98935 | 32563 ft | 497 kts | 33° |
| 2026-05-05 21:14 | -25.12721 | -46.96843 | 31882 ft | 496 kts | 30° |
| 2026-05-05 21:14 | -25.10764 | -46.95538 | 31441 ft | 495 kts | 29° |
| 2026-05-05 21:14 | -25.07828 | -46.93609 | 30772 ft | 494 kts | 29° |
| 2026-05-05 21:15 | -25.03886 | -46.91033 | 30111 ft | 485 kts | 29° |
| 2026-05-05 21:15 | -25.01979 | -46.89787 | 29818 ft | 482 kts | 29° |
| 2026-05-05 21:15 | -24.98135 | -46.87275 | 29200 ft | 477 kts | 29° |
| 2026-05-05 21:15 | -24.95288 | -46.85415 | 28719 ft | 473 kts | 29° |
| 2026-05-05 21:16 | -24.93392 | -46.84177 | 28390 ft | 471 kts | 29° |
| 2026-05-05 21:16 | -24.89680 | -46.81751 | 27748 ft | 465 kts | 29° |
| 2026-05-05 21:16 | -24.87802 | -46.80528 | 27419 ft | 463 kts | 29° |
| 2026-05-05 21:16 | -24.85009 | -46.78712 | 26928 ft | 459 kts | 29° |
| 2026-05-05 21:17 | -24.81367 | -46.76343 | 26277 ft | 454 kts | 29° |
| 2026-05-05 21:17 | -24.79561 | -46.75166 | 25957 ft | 451 kts | 29° |
| 2026-05-05 21:17 | -24.76867 | -46.73410 | 25473 ft | 447 kts | 30° |
| 2026-05-05 21:17 | -24.74197 | -46.71669 | 24988 ft | 444 kts | 30° |
| 2026-05-05 21:18 | -24.71544 | -46.69939 | 24502 ft | 440 kts | 30° |
| 2026-05-05 21:18 | -24.68020 | -46.67642 | 23854 ft | 435 kts | 30° |
| 2026-05-05 21:18 | -24.66284 | -46.66511 | 23531 ft | 433 kts | 30° |
| 2026-05-05 21:18 | -24.62858 | -46.64307 | 22945 ft | 426 kts | 27° |
| 2026-05-05 21:19 | -24.61035 | -46.63409 | 22673 ft | 421 kts | 19° |
| 2026-05-05 21:19 | -24.57257 | -46.62518 | 22056 ft | 414 kts | 2° |
| 2026-05-05 21:19 | -24.54414 | -46.62453 | 21596 ft | 410 kts | 358° |
| 2026-05-05 21:19 | -24.52495 | -46.62475 | 21280 ft | 408 kts | 358° |
| 2026-05-05 21:20 | -24.49663 | -46.62520 | 20809 ft | 405 kts | 358° |
| 2026-05-05 21:20 | -24.46863 | -46.62553 | 20346 ft | 402 kts | 358° |
| 2026-05-05 21:20 | -24.43148 | -46.62573 | 19730 ft | 397 kts | 359° |
| 2026-05-05 21:20 | -24.40406 | -46.62579 | 19263 ft | 395 kts | 359° |
| 2026-05-05 21:21 | -24.38580 | -46.62583 | 18956 ft | 393 kts | 359° |
| 2026-05-05 21:21 | -24.34942 | -46.62585 | 18343 ft | 389 kts | 359° |
| 2026-05-05 21:21 | -24.33135 | -46.62585 | 18033 ft | 387 kts | 359° |
| 2026-05-05 21:21 | -24.30439 | -46.62586 | 17567 ft | 385 kts | 359° |
| 2026-05-05 21:22 | -24.27753 | -46.62588 | 17116 ft | 382 kts | 359° |
| 2026-05-05 21:22 | -24.25102 | -46.62590 | 16658 ft | 380 kts | 360° |
| 2026-05-05 21:22 | -24.22451 | -46.62592 | 16201 ft | 377 kts | 360° |
| 2026-05-05 21:22 | -24.19830 | -46.62593 | 15746 ft | 375 kts | 0° |
| 2026-05-05 21:23 | -24.17205 | -46.62596 | 15294 ft | 372 kts | 0° |
| 2026-05-05 21:23 | -24.14641 | -46.62597 | 14855 ft | 369 kts | 0° |
| 2026-05-05 21:23 | -24.11183 | -46.62598 | 14247 ft | 365 kts | 0° |
| 2026-05-05 21:23 | -24.08657 | -46.62599 | 13801 ft | 363 kts | 0° |
| 2026-05-05 21:24 | -24.06942 | -46.62600 | 13513 ft | 360 kts | 0° |
| 2026-05-05 21:24 | -24.04420 | -46.62600 | 13147 ft | 355 kts | 0° |
| 2026-05-05 21:24 | -24.01960 | -46.62600 | 12826 ft | 352 kts | 0° |
| 2026-05-05 21:24 | -23.98620 | -46.62603 | 12408 ft | 352 kts | 0° |
| 2026-05-05 21:25 | -23.96987 | -46.62605 | 12205 ft | 352 kts | 0° |
| 2026-05-05 21:25 | -23.94524 | -46.62607 | 11899 ft | 350 kts | 0° |
| 2026-05-05 21:25 | -23.92061 | -46.62609 | 11613 ft | 348 kts | 0° |
| 2026-05-05 21:25 | -23.89630 | -46.62611 | 11309 ft | 346 kts | 0° |
| 2026-05-05 21:26 | -23.87237 | -46.62666 | 10972 ft | 339 kts | 354° |
| 2026-05-05 21:26 | -23.84254 | -46.63586 | 10555 ft | 328 kts | 334° |
| 2026-05-05 21:26 | -23.82326 | -46.64819 | 10401 ft | 317 kts | 328° |
| 2026-05-05 21:26 | -23.80498 | -46.66112 | 10117 ft | 310 kts | 327° |
| 2026-05-05 21:27 | -23.78685 | -46.67402 | 9682 ft | 309 kts | 327° |
| 2026-05-05 21:27 | -23.77475 | -46.68256 | 9420 ft | 307 kts | 328° |
| 2026-05-05 21:27 | -23.75703 | -46.69498 | 9256 ft | 296 kts | 328° |
| 2026-05-05 21:27 | -23.73983 | -46.70697 | 9235 ft | 276 kts | 328° |
| 2026-05-05 21:28 | -23.72424 | -46.71782 | 9256 ft | 263 kts | 328° |
| 2026-05-05 21:28 | -23.70867 | -46.72863 | 9042 ft | 261 kts | 328° |
| 2026-05-05 21:28 | -23.69302 | -46.73949 | 8566 ft | 266 kts | 328° |
| 2026-05-05 21:28 | -23.67216 | -46.75396 | 7976 ft | 264 kts | 328° |
| 2026-05-05 21:29 | -23.66186 | -46.76109 | 7695 ft | 264 kts | 328° |
| 2026-05-05 21:29 | -23.64089 | -46.77561 | 7115 ft | 266 kts | 328° |
| 2026-05-05 21:29 | -23.62557 | -46.78622 | 6764 ft | 257 kts | 328° |
| 2026-05-05 21:29 | -23.61063 | -46.79657 | 6441 ft | 249 kts | 328° |
| 2026-05-05 21:30 | -23.59633 | -46.80649 | 6133 ft | 241 kts | 328° |
| 2026-05-05 21:30 | -23.58674 | -46.81284 | 5915 ft | 236 kts | 335° |
| 2026-05-05 21:30 | -23.57126 | -46.81632 | 5562 ft | 225 kts | 9° |
| 2026-05-05 21:30 | -23.55328 | -46.80731 | 5337 ft | 207 kts | 47° |
| 2026-05-05 21:31 | -23.54485 | -46.79492 | 5320 ft | 201 kts | 59° |
| 2026-05-05 21:31 | -23.54004 | -46.78640 | 5236 ft | 191 kts | 59° |
| 2026-05-05 21:31 | -23.53120 | -46.77068 | 5032 ft | 173 kts | 59° |
| 2026-05-05 21:31 | -23.52702 | -46.76335 | 4947 ft | 164 kts | 59° |
| 2026-05-05 21:32 | -23.51917 | -46.74959 | 4810 ft | 161 kts | 64° |
| 2026-05-05 21:32 | -23.51689 | -46.74155 | 4710 ft | 171 kts | 92° |
| 2026-05-05 21:32 | -23.52348 | -46.72724 | 4693 ft | 160 kts | 142° |
| 2026-05-05 21:32 | -23.53296 | -46.72067 | 4619 ft | 160 kts | 148° |
| 2026-05-05 21:33 | -23.54232 | -46.71463 | 4351 ft | 149 kts | 149° |
| 2026-05-05 21:33 | -23.54814 | -46.71085 | 4191 ft | 143 kts | 148° |
| 2026-05-05 21:33 | -23.55660 | -46.70512 | 3985 ft | 143 kts | 147° |
| 2026-05-05 21:33 | -23.56492 | -46.69934 | 3776 ft | 142 kts | 147° |
| 2026-05-05 21:34 | -23.57324 | -46.69353 | 3605 ft | 141 kts | 147° |
| 2026-05-05 21:34 | -23.58164 | -46.68772 | 3430 ft | 141 kts | 147° |
| 2026-05-05 21:34 | -23.59267 | -46.68012 | 3180 ft | 140 kts | 146° |
| 2026-05-05 21:34 | -23.59819 | -46.67624 | 3073 ft | 140 kts | 147° |
| 2026-05-05 21:35 | -23.60917 | -46.66876 | 2849 ft | 140 kts | 146° |
| 2026-05-05 21:35 | -23.61465 | -46.66484 | 2722 ft | 140 kts | 146° |
| 2026-05-05 21:35 | -23.62549 | -46.65731 | 2605 ft | 122 kts | 146° |
| 2026-05-05 21:35 | -23.63007 | -46.65412 | 2622 ft | 35 kts | 147° |
| 2026-05-05 21:36 | -23.63060 | -46.65379 | 2621 ft | 6 kts | 158° |
| 2026-05-05 21:36 | -23.63110 | -46.65373 | 2620 ft | 8 kts | 185° |
| 2026-05-05 21:36 | -23.63185 | -46.65406 | 2618 ft | 6 kts | 244° |
| 2026-05-05 21:36 | -23.63172 | -46.65439 | 2618 ft | 4 kts | 326° |
| 2026-05-05 21:37 | -23.63166 | -46.65444 | 2619 ft | 0 kts | 328° |
| 2026-05-05 21:37 | -23.63121 | -46.65475 | 2619 ft | 7 kts | 328° |
| 2026-05-05 21:37 | -23.63072 | -46.65507 | 2619 ft | 9 kts | 329° |
| 2026-05-05 21:38 | -23.63034 | -46.65525 | 2619 ft | 8 kts | 359° |
| 2026-05-05 21:38 | -23.62981 | -46.65538 | 2619 ft | 8 kts | 328° |
| 2026-05-05 21:38 | -23.62896 | -46.65597 | 2617 ft | 12 kts | 328° |
| 2026-05-05 21:38 | -23.62846 | -46.65631 | 2615 ft | 14 kts | 328° |
| 2026-05-05 21:39 | -23.62749 | -46.65696 | 2612 ft | 11 kts | 329° |
| 2026-05-05 21:39 | -23.62691 | -46.65735 | 2609 ft | 6 kts | 328° |
| 2026-05-05 21:39 | -23.62685 | -46.65761 | 2608 ft | 4 kts | 233° |
| 2026-05-05 21:39 | -23.62707 | -46.65794 | 2607 ft | 6 kts | 238° |
| 2026-05-05 21:40 | -23.62720 | -46.65818 | 2607 ft | 0 kts | 239° |